createdAt,value
2024-03-02T00:01:52.601Z,100252.25
2024-03-02T00:04:54.522Z,100262.03
2024-03-02T00:07:58.848Z,100260.63
2024-03-02T00:11:02.155Z,100261.41
2024-03-02T00:14:04.261Z,100255.50
2024-03-02T00:17:06.293Z,100253.66
2024-03-02T00:20:10.658Z,100252.13
2024-03-02T00:23:16.669Z,100256.47
2024-03-02T00:26:18.553Z,100258.16
2024-03-02T00:29:21.987Z,100251.16
2024-03-02T00:32:23.747Z,100251.97
2024-03-02T00:35:25.481Z,100246.97
2024-03-02T00:38:28.733Z,100246.50
2024-03-02T00:41:33.673Z,100251.13
2024-03-02T00:44:37.079Z,100257.53
2024-03-02T00:47:40.209Z,100235.28
2024-03-02T00:50:42.017Z,100246.19
2024-03-02T00:53:43.941Z,100248.19
2024-03-02T00:56:45.736Z,100239.84
2024-03-02T00:59:47.521Z,100239.66
2024-03-02T01:02:49.334Z,100235.78
2024-03-02T01:05:51.237Z,100235.72
2024-03-02T01:08:53.795Z,100240.25
2024-03-02T01:11:55.867Z,100247.59
2024-03-02T01:14:57.668Z,100250.06
2024-03-02T01:17:59.546Z,100260.81
2024-03-02T01:21:01.362Z,100255.22
2024-03-02T01:24:03.264Z,100247.91
2024-03-02T01:27:05.161Z,100248.25
2024-03-02T01:30:07.950Z,100253.53
2024-03-02T01:33:09.922Z,100255.22
2024-03-02T01:36:11.752Z,100258.03
2024-03-02T01:39:13.698Z,100251.50
2024-03-02T01:42:15.689Z,100243.56
2024-03-02T01:45:17.666Z,100243.41
2024-03-02T01:48:20.404Z,100245.13
2024-03-02T01:51:22.595Z,100232.09
2024-03-02T01:54:24.644Z,100224.66
2024-03-02T01:57:26.488Z,100223.28
2024-03-02T02:00:28.737Z,100227.63
2024-03-02T02:03:30.901Z,100232.13
2024-03-02T02:06:33.304Z,100225.94
2024-03-02T02:09:35.146Z,100223.13
2024-03-02T02:12:38.626Z,100233.22
2024-03-02T02:15:40.606Z,100237.59
2024-03-02T02:18:42.492Z,100236.03
2024-03-02T02:21:44.605Z,100240.38
2024-03-02T02:24:46.502Z,100244.09
2024-03-02T02:27:48.280Z,100247.34
2024-03-02T02:30:50.081Z,100248.28
2024-03-02T02:33:51.876Z,100242.41
2024-03-02T02:36:54.132Z,100243.78
2024-03-02T02:39:55.968Z,100246.25
2024-03-02T02:43:00.897Z,100247.50
2024-03-02T02:46:02.963Z,100248.44
2024-03-02T02:49:04.908Z,100249.97
2024-03-02T02:52:06.761Z,100251.84
2024-03-02T02:55:11.323Z,100248.69
2024-03-02T02:58:13.953Z,100246.34
2024-03-02T03:01:19.326Z,100247.41
2024-03-02T03:04:21.126Z,100250.25
2024-03-02T03:07:22.903Z,100253.50
2024-03-02T03:10:27.050Z,100254.72
2024-03-02T03:13:28.898Z,100255.66
2024-03-02T03:16:30.753Z,100253.97
2024-03-02T03:19:32.625Z,100258.44
2024-03-02T03:22:34.519Z,100252.22
2024-03-02T03:25:36.378Z,100255.03
2024-03-02T03:28:38.139Z,100253.63
2024-03-02T03:31:39.868Z,100255.06
2024-03-02T03:34:41.897Z,100263.44
2024-03-02T03:37:43.729Z,100260.94
2024-03-02T03:40:46.152Z,100262.66
2024-03-02T03:43:47.885Z,100261.56
2024-03-02T03:46:49.765Z,100261.13
2024-03-02T03:49:51.569Z,100253.81
2024-03-02T03:52:53.387Z,100255.47
2024-03-02T03:55:55.153Z,100255.75
2024-03-02T03:58:56.945Z,100253.94
2024-03-02T04:01:58.700Z,100253.00
2024-03-02T04:05:00.549Z,100252.38
2024-03-02T04:08:02.436Z,100255.66
2024-03-02T04:11:05.354Z,100253.03
2024-03-02T04:14:07.440Z,100255.66
2024-03-02T04:17:09.185Z,100258.63
2024-03-02T04:20:13.694Z,100257.09
2024-03-02T04:23:15.493Z,100260.22
2024-03-02T04:26:20.985Z,100259.25
2024-03-02T04:29:22.792Z,100265.28
2024-03-02T04:32:24.539Z,100270.78
2024-03-02T04:35:26.681Z,100265.94
2024-03-02T04:38:29.986Z,100266.69
2024-03-02T04:41:31.756Z,100274.31
2024-03-02T04:44:33.514Z,100273.19
2024-03-02T04:47:35.362Z,100275.69
2024-03-02T04:50:37.122Z,100279.13
2024-03-02T04:53:39.456Z,100281.91
2024-03-02T04:56:45.746Z,100284.41
2024-03-02T04:59:47.704Z,100281.25
2024-03-02T05:02:49.490Z,100288.25
2024-03-02T05:05:51.254Z,100292.91
2024-03-02T05:08:53.079Z,100285.28
2024-03-02T05:12:16.800Z,100292.91
2024-03-02T05:15:18.672Z,100298.31
2024-03-02T05:18:20.522Z,100300.19
2024-03-02T05:21:22.349Z,100300.66
2024-03-02T05:24:24.260Z,100300.50
2024-03-02T05:27:26.249Z,100300.44
2024-03-02T05:30:28.133Z,100303.53
2024-03-02T05:33:34.901Z,100309.00
2024-03-02T05:36:36.763Z,100306.44
2024-03-02T05:39:38.737Z,100313.88
2024-03-02T05:42:42.273Z,100321.44
2024-03-02T05:45:44.178Z,100318.63
2024-03-02T05:48:46.009Z,100323.41
2024-03-02T05:51:47.971Z,100321.91
2024-03-02T05:54:50.826Z,100329.81
2024-03-02T05:58:07.510Z,100325.34
2024-03-02T06:01:09.427Z,100321.19
2024-03-02T06:04:14.698Z,100337.34
2024-03-02T06:07:16.526Z,100333.81
2024-03-02T06:10:18.745Z,100329.78
2024-03-02T06:13:20.464Z,100333.34
2024-03-02T06:16:22.203Z,100335.84
2024-03-02T06:19:23.976Z,100330.84
2024-03-02T06:22:26.639Z,100336.44
2024-03-02T06:25:29.271Z,100332.88
2024-03-02T06:28:31.060Z,100334.63
2024-03-02T06:31:32.858Z,100337.25
2024-03-02T06:34:34.801Z,100333.53
2024-03-02T06:37:39.283Z,100336.66
2024-03-02T06:40:41.851Z,100340.41
2024-03-02T06:43:43.625Z,100328.91
2024-03-02T06:46:45.412Z,100338.97
2024-03-02T06:49:47.182Z,100339.94
2024-03-02T06:52:48.954Z,100344.13
2024-03-02T06:55:50.745Z,100344.13
2024-03-02T06:58:53.290Z,100346.81
2024-03-02T07:01:55.070Z,100345.53
2024-03-02T07:04:56.956Z,100348.34
2024-03-02T07:07:58.811Z,100354.91
2024-03-02T07:11:00.752Z,100348.53
2024-03-02T07:14:02.984Z,100354.75
2024-03-02T07:17:04.970Z,100357.50
2024-03-02T07:20:07.914Z,100357.63
2024-03-02T07:23:10.547Z,100358.88
2024-03-02T07:29:17.019Z,100365.41
2024-03-02T07:32:18.825Z,100362.28
2024-03-02T07:35:20.613Z,100362.69
2024-03-02T07:38:23.251Z,100364.22
2024-03-02T07:41:25.089Z,100369.28
2024-03-02T07:44:26.940Z,100377.53
2024-03-02T07:47:28.772Z,100370.88
2024-03-02T07:50:31.517Z,100375.00
2024-03-02T07:53:33.261Z,100374.41
2024-03-02T07:56:35.858Z,100381.97
2024-03-02T07:59:38.231Z,100387.13
2024-03-02T08:02:41.510Z,100379.59
2024-03-02T08:05:43.456Z,100390.59
2024-03-02T08:08:45.239Z,100386.91
2024-03-02T08:11:47.082Z,100391.38
2024-03-02T08:14:49.037Z,100392.44
2024-03-02T08:17:51.173Z,100385.22
2024-03-02T08:20:53.040Z,100390.47
2024-03-02T08:23:54.825Z,100398.47
2024-03-02T08:26:56.592Z,100394.97
2024-03-02T08:29:58.362Z,100399.41
2024-03-02T08:33:01.054Z,100402.19
2024-03-02T08:36:03.814Z,100403.75
2024-03-02T08:39:08.730Z,100401.59
2024-03-02T08:42:10.460Z,100397.03
2024-03-02T08:45:12.330Z,100404.09
2024-03-02T08:48:14.259Z,100398.94
2024-03-02T08:51:16.072Z,100406.03
2024-03-02T08:54:17.845Z,100407.22
2024-03-02T08:57:19.786Z,100402.59
2024-03-02T09:00:22.113Z,100407.31
2024-03-02T09:03:23.981Z,100408.91
2024-03-02T09:06:25.854Z,100406.84
2024-03-02T09:09:27.673Z,100408.22
2024-03-02T09:12:29.587Z,100409.81
2024-03-02T09:15:32.985Z,100412.44
2024-03-02T09:18:36.388Z,100415.19
2024-03-02T09:21:38.366Z,100415.00
2024-03-02T09:24:40.521Z,100418.59
2024-03-02T09:27:42.361Z,100422.06
2024-03-02T09:30:44.163Z,100416.50
2024-03-02T09:33:48.721Z,100425.31
2024-03-02T09:36:52.803Z,100419.84
2024-03-02T09:39:55.284Z,100430.88
2024-03-02T09:42:58.278Z,100417.94
2024-03-02T09:46:00.402Z,100418.66
2024-03-02T09:49:02.355Z,100417.78
2024-03-02T09:52:05.808Z,100415.00
2024-03-02T09:55:08.093Z,100419.78
2024-03-02T09:58:10.217Z,100407.00
2024-03-02T10:01:12.529Z,100415.78
2024-03-02T10:04:14.581Z,100414.41
2024-03-02T10:07:18.183Z,100424.03
2024-03-02T10:10:20.308Z,100423.81
2024-03-02T10:13:26.213Z,100409.41
2024-03-02T10:16:28.176Z,100416.59
2024-03-02T10:19:33.753Z,100418.22
2024-03-02T10:22:35.768Z,100415.25
2024-03-02T10:25:43.879Z,100413.47
2024-03-02T10:29:00.457Z,100411.44
2024-03-02T10:32:03.886Z,100412.25
2024-03-02T10:35:07.411Z,100406.22
2024-03-02T10:38:12.275Z,100403.41
2024-03-02T10:41:18.561Z,100403.59
2024-03-02T10:44:20.446Z,100398.56
2024-03-02T10:47:23.831Z,100400.84
2024-03-02T10:50:26.003Z,100396.38
2024-03-02T10:53:27.795Z,100402.91
2024-03-02T10:56:35.766Z,100403.56
2024-03-02T10:59:41.077Z,100392.56
2024-03-02T11:02:51.076Z,100401.72
2024-03-02T11:05:53.157Z,100403.16
2024-03-02T11:09:00.266Z,100403.16
2024-03-02T11:12:13.661Z,100399.69
2024-03-02T11:15:22.276Z,100400.16
2024-03-02T11:18:25.209Z,100393.94
2024-03-02T11:21:27.519Z,100393.34
2024-03-02T11:24:37.210Z,100400.16
2024-03-02T11:27:52.526Z,100400.09
2024-03-02T11:30:55.310Z,100394.53
2024-03-02T11:33:57.163Z,100392.69
2024-03-02T11:37:02.522Z,100388.22
2024-03-02T11:40:05.662Z,100384.97
2024-03-02T11:43:09.355Z,100381.38
2024-03-02T11:46:12.540Z,100378.41
2024-03-02T11:49:37.245Z,100384.31
2024-03-02T11:52:41.285Z,100379.34
2024-03-02T11:55:47.868Z,100375.19
2024-03-02T11:58:53.621Z,100376.13
2024-03-02T12:01:56.055Z,100376.72
2024-03-02T12:04:58.255Z,100371.75
2024-03-02T12:08:07.720Z,100381.72
2024-03-02T12:11:09.571Z,100377.53
2024-03-02T12:14:14.617Z,100371.28
2024-03-02T12:17:18.006Z,100375.31
2024-03-02T12:20:19.950Z,100378.09
2024-03-02T12:23:21.979Z,100375.66
2024-03-02T12:26:23.973Z,100374.84
2024-03-02T12:29:25.972Z,100375.03
2024-03-02T12:32:28.539Z,100383.25
2024-03-02T12:35:31.036Z,100383.56
2024-03-02T12:38:32.790Z,100386.38
2024-03-02T12:41:34.518Z,100390.75
2024-03-02T12:44:36.257Z,100387.66
2024-03-02T12:47:40.277Z,100391.41
2024-03-02T12:50:42.281Z,100391.09
2024-03-02T12:53:44.222Z,100393.44
2024-03-02T12:56:47.536Z,100393.75
2024-03-02T12:59:49.400Z,100391.38
2024-03-02T13:02:52.808Z,100383.00
2024-03-02T13:05:55.301Z,100380.16
2024-03-02T13:08:57.113Z,100382.97
2024-03-02T13:12:01.506Z,100385.91
2024-03-02T13:15:05.160Z,100379.53
2024-03-02T13:18:08.528Z,100382.94
2024-03-02T13:21:10.392Z,100382.09
2024-03-02T13:24:12.263Z,100375.03
2024-03-02T13:27:14.601Z,100378.22
2024-03-02T13:30:16.382Z,100379.03
2024-03-02T13:33:23.357Z,100387.66
2024-03-02T13:36:25.302Z,100385.84
2024-03-02T13:39:27.640Z,100388.16
2024-03-02T13:42:29.691Z,100387.03
2024-03-02T13:45:31.567Z,100393.75
2024-03-02T13:48:33.480Z,100397.06
2024-03-02T13:51:35.535Z,100394.97
2024-03-02T13:54:45.174Z,100384.06
2024-03-02T13:57:48.682Z,100385.28
2024-03-02T14:00:50.631Z,100383.25
2024-03-02T14:03:52.735Z,100380.88
2024-03-02T14:06:54.596Z,100380.25
2024-03-02T14:09:56.542Z,100378.34
2024-03-02T14:12:58.449Z,100377.72
2024-03-02T14:16:00.433Z,100383.00
2024-03-02T14:19:02.341Z,100382.09
2024-03-02T14:22:04.422Z,100377.72
2024-03-02T14:25:06.619Z,100370.84
2024-03-02T14:28:27.047Z,100377.09
2024-03-02T14:31:32.235Z,100377.72
2024-03-02T14:34:34.871Z,100385.47
2024-03-02T14:37:38.203Z,100384.56
2024-03-02T14:40:40.047Z,100381.16
2024-03-02T14:43:41.876Z,100375.56
2024-03-02T14:46:45.627Z,100382.22
2024-03-02T14:49:47.515Z,100377.88
2024-03-02T14:52:49.481Z,100377.19
2024-03-02T14:55:51.326Z,100368.50
2024-03-02T14:58:53.176Z,100373.03
2024-03-02T15:01:55.002Z,100371.00
2024-03-02T15:04:56.925Z,100377.88
2024-03-02T15:08:00.601Z,100380.69
2024-03-02T15:11:03.331Z,100375.88
2024-03-02T15:14:05.229Z,100377.88
2024-03-02T15:17:07.632Z,100378.03
2024-03-02T15:20:10.108Z,100378.22
2024-03-02T15:23:12.059Z,100384.31
2024-03-02T15:26:14.013Z,100383.63
2024-03-02T15:29:15.803Z,100389.09
2024-03-02T15:32:17.548Z,100381.44
2024-03-02T15:35:19.435Z,100380.09
2024-03-02T15:38:28.317Z,100379.19
2024-03-02T15:41:34.732Z,100375.03
2024-03-02T15:44:36.549Z,100390.91
2024-03-02T15:47:38.505Z,100383.03
2024-03-02T15:50:40.468Z,100384.72
2024-03-02T15:53:42.313Z,100378.97
2024-03-02T15:56:44.237Z,100379.78
2024-03-02T15:59:46.244Z,100377.91
2024-03-02T16:02:48.053Z,100379.16
2024-03-02T16:05:49.847Z,100377.19
2024-03-02T16:08:52.398Z,100377.19
2024-03-02T16:11:54.332Z,100385.00
2024-03-02T16:14:56.213Z,100380.00
2024-03-02T16:17:59.861Z,100386.53
2024-03-02T16:21:01.725Z,100385.94
2024-03-02T16:24:03.647Z,100387.50
2024-03-02T16:27:05.683Z,100390.47
2024-03-02T16:30:07.876Z,100395.13
2024-03-02T16:33:10.028Z,100390.16
2024-03-02T16:36:12.041Z,100389.88
2024-03-02T16:39:13.808Z,100395.44
2024-03-02T16:42:16.108Z,100398.72
2024-03-02T16:45:17.899Z,100389.84
2024-03-02T16:48:20.152Z,100392.19
2024-03-02T16:51:22.762Z,100396.53
2024-03-02T16:54:25.034Z,100401.03
2024-03-02T16:57:27.161Z,100405.38
2024-03-02T17:00:29.306Z,100411.88
2024-03-02T17:03:31.123Z,100413.59
2024-03-02T17:06:33.421Z,100415.13
2024-03-02T17:09:35.292Z,100411.69
2024-03-02T17:12:37.099Z,100407.47
2024-03-02T17:15:38.899Z,100419.28
2024-03-02T17:18:41.021Z,100419.09
2024-03-02T17:21:43.061Z,100421.75
2024-03-02T17:24:44.880Z,100420.34
2024-03-02T17:27:46.731Z,100429.00
2024-03-02T17:30:48.590Z,100429.13
2024-03-02T17:33:50.472Z,100428.78
2024-03-02T17:36:52.691Z,100418.31
2024-03-02T17:39:55.886Z,100426.09
2024-03-02T17:42:57.905Z,100429.31
2024-03-02T17:46:00.778Z,100432.09
2024-03-02T17:49:03.156Z,100433.31
2024-03-02T17:52:05.630Z,100437.81
2024-03-02T17:55:08.075Z,100435.75
2024-03-02T17:58:10.391Z,100432.66
2024-03-02T18:01:12.801Z,100441.28
2024-03-02T18:04:14.802Z,100433.50
2024-03-02T18:07:16.742Z,100438.28
2024-03-02T18:10:19.054Z,100430.50
2024-03-02T18:13:20.846Z,100428.19
2024-03-02T18:16:22.893Z,100438.25
2024-03-02T18:19:24.818Z,100431.72
2024-03-02T18:22:26.844Z,100435.84
2024-03-02T18:25:29.179Z,100432.84
2024-03-02T18:28:32.138Z,100440.94
2024-03-02T18:31:33.954Z,100432.66
2024-03-02T18:34:37.895Z,100443.81
2024-03-02T18:37:43.856Z,100437.09
2024-03-02T18:40:48.904Z,100435.06
2024-03-02T18:43:50.673Z,100435.66
2024-03-02T18:46:52.811Z,100443.38
2024-03-02T18:49:56.531Z,100448.16
2024-03-02T18:52:58.796Z,100443.69
2024-03-02T18:56:00.584Z,100458.22
2024-03-02T18:59:02.332Z,100454.91
2024-03-02T19:02:04.538Z,100457.06
2024-03-02T19:05:07.300Z,100462.13
2024-03-02T19:08:14.350Z,100464.59
2024-03-02T19:11:17.863Z,100465.66
2024-03-02T19:14:19.988Z,100458.34
2024-03-02T19:17:21.805Z,100462.44
2024-03-02T19:20:24.597Z,100468.78
2024-03-02T19:23:32.207Z,100466.44
2024-03-02T19:26:38.340Z,100469.97
2024-03-02T19:29:40.388Z,100475.28
2024-03-02T19:32:42.357Z,100473.22
2024-03-02T19:35:45.100Z,100469.31
2024-03-02T19:38:47.016Z,100471.94
2024-03-02T19:41:49.073Z,100469.03
2024-03-02T19:44:51.066Z,100465.44
2024-03-02T19:47:53.318Z,100467.28
2024-03-02T19:50:57.160Z,100461.31
2024-03-02T19:53:59.369Z,100466.00
2024-03-02T19:57:03.146Z,100471.56
2024-03-02T20:00:07.948Z,100471.06
2024-03-02T20:03:09.897Z,100467.00
2024-03-02T20:06:11.722Z,100470.59
2024-03-02T20:09:14.546Z,100470.59
2024-03-02T20:12:16.335Z,100473.91
2024-03-02T20:15:19.885Z,100473.81
2024-03-02T20:18:21.737Z,100470.19
2024-03-02T20:21:23.538Z,100471.75
2024-03-02T20:24:25.575Z,100472.06
2024-03-02T20:27:27.763Z,100471.94
2024-03-02T20:30:32.948Z,100473.78
2024-03-02T20:33:34.805Z,100474.41
2024-03-02T20:36:36.605Z,100478.88
2024-03-02T20:39:38.826Z,100473.63
2024-03-02T20:42:40.627Z,100480.50
2024-03-02T20:45:42.656Z,100488.41
2024-03-02T20:48:47.392Z,100481.69
2024-03-02T20:51:49.383Z,100484.22
2024-03-02T20:54:52.640Z,100478.19
2024-03-02T20:57:54.932Z,100485.09
2024-03-02T21:00:57.295Z,100489.88
2024-03-02T21:03:59.409Z,100486.63
2024-03-02T21:07:01.342Z,100489.97
2024-03-02T21:10:03.571Z,100481.59
2024-03-02T21:13:05.678Z,100477.44
2024-03-02T21:16:08.136Z,100482.16
2024-03-02T21:19:10.444Z,100483.78
2024-03-02T21:22:12.422Z,100476.75
2024-03-02T21:25:16.328Z,100481.25
2024-03-02T21:28:18.124Z,100479.94
2024-03-02T21:31:20.127Z,100478.34
2024-03-02T21:34:22.256Z,100480.97
2024-03-02T21:37:24.273Z,100478.72
2024-03-02T21:40:26.464Z,100483.00
2024-03-02T21:43:28.584Z,100488.94
2024-03-02T21:46:30.436Z,100489.72
2024-03-02T21:49:32.234Z,100488.66
2024-03-02T21:52:34.027Z,100491.44
2024-03-02T21:55:36.306Z,100489.19
2024-03-02T21:58:38.092Z,100480.94
2024-03-02T22:01:40.318Z,100480.44
2024-03-02T22:04:42.464Z,100482.66
2024-03-02T22:07:44.299Z,100482.34
2024-03-02T22:10:46.137Z,100478.25
2024-03-02T22:13:50.365Z,100488.41
2024-03-02T22:16:52.231Z,100488.88
2024-03-02T22:19:54.017Z,100490.47
2024-03-02T22:22:55.816Z,100490.72
2024-03-02T22:26:01.050Z,100486.69
2024-03-02T22:29:02.814Z,100481.88
2024-03-02T22:32:06.863Z,100486.97
2024-03-02T22:35:08.788Z,100485.72
2024-03-02T22:38:10.602Z,100493.66
2024-03-02T22:41:12.425Z,100474.84
2024-03-02T22:44:14.180Z,100473.28
2024-03-02T22:47:16.100Z,100474.72
2024-03-02T22:50:18.136Z,100471.94
2024-03-02T22:53:19.918Z,100472.16
2024-03-02T22:56:23.175Z,100465.53
2024-03-02T22:59:24.975Z,100465.53
2024-03-02T23:02:26.848Z,100472.06
2024-03-02T23:05:30.275Z,100472.28
2024-03-02T23:08:32.131Z,100474.34
2024-03-02T23:11:34.911Z,100478.88
2024-03-02T23:14:36.658Z,100480.81
2024-03-02T23:17:38.442Z,100482.09
2024-03-02T23:20:40.301Z,100481.50
2024-03-02T23:23:42.022Z,100482.94
2024-03-02T23:26:43.943Z,100483.94
2024-03-02T23:29:45.772Z,100484.00
2024-03-02T23:32:47.642Z,100486.81
2024-03-02T23:35:49.486Z,100483.63
2024-03-02T23:38:51.252Z,100483.69
2024-03-02T23:41:52.977Z,100481.88
2024-03-02T23:44:54.715Z,100481.72
2024-03-02T23:47:56.560Z,100484.72
2024-03-02T23:50:58.422Z,100487.16
2024-03-02T23:54:00.301Z,100488.78
2024-03-02T23:57:02.049Z,100489.59
